createdAt,value
2024-02-08T06:01:36.360Z,606.00
2024-02-08T06:02:09.317Z,609.00
2024-02-08T06:03:09.256Z,608.00
2024-02-08T06:04:09.295Z,608.00
2024-02-08T06:05:09.298Z,605.00
2024-02-08T06:06:09.330Z,604.00
2024-02-08T06:07:09.847Z,602.00
2024-02-08T06:08:09.390Z,602.00
2024-02-08T06:09:09.327Z,604.00
2024-02-08T06:10:09.717Z,606.00
2024-02-08T06:11:09.267Z,606.00
2024-02-08T06:12:09.458Z,605.00
2024-02-08T06:13:09.350Z,604.00
2024-02-08T06:14:09.269Z,604.00
2024-02-08T06:15:09.268Z,604.00
2024-02-08T06:16:09.461Z,601.00
2024-02-08T06:17:09.293Z,598.00
2024-02-08T06:18:09.330Z,600.00
2024-02-08T06:19:09.428Z,602.00
2024-02-08T06:20:09.326Z,602.00
2024-02-08T06:21:09.267Z,602.00
2024-02-08T06:22:09.328Z,604.00
2024-02-08T06:23:09.280Z,606.00
2024-02-08T06:24:09.273Z,605.00
2024-02-08T06:25:09.363Z,604.00
2024-02-08T06:26:09.778Z,605.00
2024-02-08T06:27:09.326Z,606.00
2024-02-08T06:28:09.354Z,603.00
2024-02-08T06:29:09.311Z,602.00
2024-02-08T06:30:09.423Z,600.00
2024-02-08T06:31:09.423Z,599.00
2024-02-08T06:32:09.338Z,602.00
2024-02-08T06:33:09.995Z,602.00
2024-02-08T06:34:09.461Z,603.00
2024-02-08T06:35:09.377Z,603.00
2024-02-08T06:36:09.300Z,606.00
2024-02-08T06:37:09.337Z,607.00
2024-02-08T06:38:09.329Z,609.00
2024-02-08T06:39:09.358Z,609.00
2024-02-08T06:40:09.421Z,610.00
2024-02-08T06:41:09.325Z,610.00
2024-02-08T06:42:09.334Z,609.00
2024-02-08T06:43:09.408Z,609.00
2024-02-08T06:44:09.355Z,610.00
2024-02-08T06:45:09.310Z,613.00
2024-02-08T06:46:09.366Z,614.00
2024-02-08T06:47:09.331Z,615.00
2024-02-08T06:48:09.426Z,618.00
2024-02-08T06:49:09.412Z,620.00
2024-02-08T06:50:09.374Z,624.00
2024-02-08T06:51:09.408Z,628.00
2024-02-08T06:52:09.350Z,637.00
2024-02-08T06:53:09.353Z,639.00
2024-02-08T06:54:09.350Z,640.00
2024-02-08T06:55:09.374Z,642.00
2024-02-08T06:56:09.358Z,646.00
2024-02-08T06:57:09.332Z,655.00
2024-02-08T06:58:09.395Z,672.00
2024-02-08T06:59:09.410Z,677.00
2024-02-08T07:00:09.468Z,682.00
2024-02-08T07:01:09.509Z,687.00
2024-02-08T07:02:09.416Z,687.00
2024-02-08T07:03:09.578Z,694.00
2024-02-08T07:04:09.563Z,703.00
2024-02-08T07:05:12.878Z,709.00
2024-02-08T07:06:09.555Z,729.00
2024-02-08T07:07:09.431Z,738.00
2024-02-08T07:08:09.497Z,739.00
2024-02-08T07:09:09.399Z,745.00
2024-02-08T07:10:09.466Z,748.00
2024-02-08T07:11:09.377Z,758.00
2024-02-08T07:12:09.406Z,776.00
2024-02-08T07:13:09.423Z,787.00
2024-02-08T07:14:09.354Z,791.00
2024-02-08T07:15:09.391Z,794.00
2024-02-08T07:16:09.466Z,799.00
2024-02-08T07:17:09.371Z,809.00
2024-02-08T07:18:11.641Z,810.00
2024-02-08T07:19:09.894Z,818.00
2024-02-08T07:20:09.475Z,822.00
2024-02-08T07:21:09.422Z,825.00
2024-02-08T07:22:09.411Z,828.00
2024-02-08T07:23:09.380Z,831.00
2024-02-08T07:24:09.449Z,834.00
2024-02-08T07:25:09.650Z,837.00
2024-02-08T07:26:09.376Z,840.00
2024-02-08T07:27:09.421Z,843.00
2024-02-08T07:28:09.510Z,848.00
2024-02-08T07:29:09.430Z,849.00
2024-02-08T07:30:09.376Z,847.00
2024-02-08T07:31:09.420Z,849.00
2024-02-08T07:32:09.393Z,855.00
2024-02-08T07:33:09.568Z,862.00
2024-02-08T07:34:09.445Z,871.00
2024-02-08T07:35:09.675Z,871.00
2024-02-08T07:36:09.516Z,869.00
2024-02-08T07:37:09.447Z,873.00
2024-02-08T07:38:09.570Z,877.00
2024-02-08T07:39:09.635Z,880.00
2024-02-08T07:40:09.739Z,880.00
2024-02-08T07:41:09.653Z,879.00
2024-02-08T07:42:09.719Z,879.00
2024-02-08T07:43:09.872Z,880.00
2024-02-08T07:44:09.838Z,887.00
2024-02-08T07:45:09.925Z,888.00
2024-02-08T07:46:10.129Z,887.00
2024-02-08T07:47:10.042Z,888.00
2024-02-08T07:48:10.193Z,889.00
2024-02-08T07:49:10.197Z,889.00
2024-02-08T07:50:10.336Z,896.00
2024-02-08T07:51:10.205Z,899.00
2024-02-08T07:52:10.469Z,900.00
2024-02-08T07:53:10.734Z,899.00
2024-02-08T07:54:10.432Z,900.00
2024-02-08T07:55:10.602Z,898.00
2024-02-08T07:56:10.629Z,900.00
2024-02-08T07:57:10.686Z,901.00
2024-02-08T07:58:10.782Z,899.00
2024-02-08T07:59:10.771Z,899.00
2024-02-08T08:00:10.811Z,902.00
2024-02-08T08:01:10.975Z,909.00
2024-02-08T08:02:11.102Z,907.00
2024-02-08T08:03:10.962Z,903.00
2024-02-08T08:04:11.494Z,905.00
2024-02-08T08:05:11.173Z,904.00
2024-02-08T08:06:11.177Z,905.00
2024-02-08T08:07:11.508Z,901.00
2024-02-08T08:08:11.196Z,899.00
2024-02-08T08:09:11.347Z,899.00
2024-02-08T08:10:11.439Z,904.00
2024-02-08T08:11:11.351Z,911.00
2024-02-08T08:12:11.422Z,914.00
2024-02-08T08:13:11.516Z,913.00
2024-02-08T08:14:11.508Z,911.00
2024-02-08T08:15:11.593Z,910.00
2024-02-08T08:16:11.640Z,908.00
2024-02-08T08:17:11.787Z,908.00
2024-02-08T08:18:11.731Z,910.00
2024-02-08T08:19:12.366Z,914.00
2024-02-08T08:20:11.967Z,916.00
2024-02-08T08:21:11.816Z,914.00
2024-02-08T08:22:11.947Z,915.00
2024-02-08T08:23:12.000Z,923.00
2024-02-08T08:24:11.976Z,933.00
2024-02-08T08:25:13.990Z,935.00
2024-02-08T08:26:11.975Z,934.00
2024-02-08T08:27:11.985Z,928.00
2024-02-08T08:28:12.268Z,923.00
2024-02-08T08:29:11.985Z,921.00
2024-02-08T08:30:12.016Z,914.00
2024-02-08T08:31:12.006Z,906.00
2024-02-08T08:32:11.983Z,900.00
2024-02-08T08:33:12.140Z,884.00
2024-02-08T08:34:12.059Z,887.00
2024-02-08T08:35:12.117Z,883.00
2024-02-08T08:36:11.949Z,879.00
2024-02-08T08:37:12.097Z,878.00
2024-02-08T08:38:12.097Z,875.00
2024-02-08T08:39:12.105Z,870.00
2024-02-08T08:40:12.200Z,861.00
2024-02-08T08:41:12.455Z,858.00
2024-02-08T08:42:12.113Z,854.00
2024-02-08T08:43:12.190Z,842.00
2024-02-08T08:44:12.018Z,836.00
2024-02-08T08:45:12.096Z,830.00
2024-02-08T08:46:12.378Z,831.00
2024-02-08T08:47:12.036Z,837.00
2024-02-08T08:48:12.195Z,847.00
2024-02-08T08:49:12.167Z,857.00
2024-02-08T08:50:12.057Z,869.00
2024-02-08T08:51:12.689Z,882.00
2024-02-08T08:52:12.009Z,885.00
2024-02-08T08:53:12.843Z,894.00
2024-02-08T08:54:12.011Z,896.00
2024-02-08T08:55:12.248Z,906.00
2024-02-08T08:56:12.082Z,914.00
2024-02-08T08:57:12.013Z,933.00
2024-02-08T08:58:12.052Z,939.00
2024-02-08T08:59:12.072Z,937.00
2024-02-08T09:00:12.017Z,801.00
2024-02-08T09:01:12.238Z,772.00
2024-02-08T09:02:12.120Z,744.00
2024-02-08T09:03:12.030Z,709.00
2024-02-08T09:04:12.917Z,694.00
2024-02-08T09:05:12.109Z,666.00
2024-02-08T09:06:12.055Z,663.00
2024-02-08T09:07:12.906Z,646.00
2024-02-08T09:08:12.158Z,642.00
2024-02-08T09:09:19.821Z,637.00
2024-02-08T09:10:19.848Z,617.00
2024-02-08T09:11:19.775Z,613.00
2024-02-08T09:12:19.832Z,603.00
2024-02-08T09:13:19.861Z,600.00
2024-02-08T09:14:19.760Z,629.00
2024-02-08T09:15:19.803Z,612.00
2024-02-08T09:16:19.849Z,607.00
2024-02-08T09:17:24.939Z,613.00
2024-02-08T09:18:20.931Z,617.00
2024-02-08T09:19:19.838Z,624.00
2024-02-08T09:20:19.975Z,637.00
2024-02-08T09:21:19.821Z,656.00
2024-02-08T09:22:20.119Z,669.00
2024-02-08T09:23:19.813Z,722.00
2024-02-08T09:24:19.949Z,730.00
2024-02-08T09:25:27.908Z,735.00
2024-02-08T09:26:20.799Z,736.00
2024-02-08T09:27:19.838Z,737.00
2024-02-08T09:28:19.908Z,735.00
2024-02-08T09:29:19.841Z,735.00
2024-02-08T09:30:19.865Z,740.00
2024-02-08T09:31:19.997Z,751.00
2024-02-08T09:32:19.856Z,789.00
2024-02-08T09:33:19.835Z,797.00
2024-02-08T09:34:19.910Z,802.00
2024-02-08T09:35:20.005Z,809.00
2024-02-08T09:36:19.820Z,815.00
2024-02-08T09:37:19.922Z,818.00
2024-02-08T09:38:19.885Z,822.00
2024-02-08T09:39:19.842Z,834.00
2024-02-08T09:40:19.907Z,836.00
2024-02-08T09:41:19.806Z,848.00
2024-02-08T09:42:19.829Z,857.00
2024-02-08T09:43:20.117Z,860.00
2024-02-08T09:44:19.904Z,863.00
2024-02-08T09:45:20.029Z,860.00
2024-02-08T09:46:20.092Z,860.00
2024-02-08T09:47:20.075Z,867.00
2024-02-08T09:48:20.254Z,879.00
2024-02-08T09:49:20.491Z,889.00
2024-02-08T09:50:20.370Z,875.00
2024-02-08T09:51:20.336Z,878.00
2024-02-08T09:52:20.494Z,898.00
2024-02-08T09:53:42.981Z,919.00
2024-02-08T09:54:42.993Z,929.00
2024-02-08T09:55:20.521Z,948.00
2024-02-08T09:56:43.028Z,951.00
2024-02-08T09:57:20.455Z,951.00
2024-02-08T09:58:20.531Z,957.00
2024-02-08T09:59:20.528Z,962.00
2024-02-08T10:00:20.493Z,972.00
2024-02-08T10:01:20.528Z,985.00
2024-02-08T10:02:20.543Z,996.00
2024-02-08T10:03:20.505Z,1011.00
2024-02-08T10:04:20.705Z,1023.00
2024-02-08T10:05:20.934Z,1032.00
2024-02-08T10:06:20.501Z,1041.00
2024-02-08T10:07:20.512Z,1087.00
2024-02-08T10:08:20.531Z,1093.00
2024-02-08T10:09:20.537Z,1100.00
2024-02-08T10:10:20.473Z,1106.00
2024-02-08T10:11:20.520Z,1139.00
2024-02-08T10:12:20.671Z,1180.00
2024-02-08T10:13:20.554Z,1186.00
2024-02-08T10:14:20.509Z,1196.00
2024-02-08T10:15:20.489Z,1198.00
2024-02-08T10:16:20.615Z,1214.00
2024-02-08T10:17:20.498Z,1270.00
2024-02-08T10:18:20.562Z,1269.00
2024-02-08T10:19:20.636Z,1270.00
2024-02-08T10:20:20.625Z,1272.00
2024-02-08T10:21:20.573Z,1272.00
2024-02-08T10:22:20.680Z,1277.00
2024-02-08T10:23:20.669Z,1285.00
2024-02-08T10:24:20.656Z,1302.00
2024-02-08T10:25:20.722Z,1325.00
2024-02-08T10:26:20.723Z,1337.00
2024-02-08T10:27:20.853Z,1328.00
2024-02-08T10:28:20.795Z,1163.00
2024-02-08T10:29:20.796Z,990.00
2024-02-08T10:30:20.833Z,922.00
2024-02-08T10:31:20.869Z,919.00
2024-02-08T10:32:20.913Z,919.00
2024-02-08T10:33:21.242Z,835.00
2024-02-08T10:34:21.696Z,828.00
2024-02-08T10:35:55.542Z,814.00
2024-02-08T10:36:23.148Z,747.00
2024-02-08T10:37:21.059Z,739.00
2024-02-08T10:38:20.980Z,729.00
2024-02-08T10:39:21.121Z,706.00
2024-02-08T10:40:21.077Z,696.00
2024-02-08T10:41:21.026Z,675.00
2024-02-08T10:42:22.337Z,674.00
2024-02-08T10:43:21.072Z,686.00
2024-02-08T10:44:21.008Z,699.00
2024-02-08T10:45:21.023Z,733.00
2024-02-08T10:46:21.055Z,764.00
2024-02-08T10:47:28.899Z,782.00
2024-02-08T10:48:22.066Z,794.00
2024-02-08T10:49:21.072Z,809.00
2024-02-08T10:50:22.154Z,817.00
2024-02-08T10:51:21.023Z,844.00
2024-02-08T10:52:22.097Z,857.00
2024-02-08T10:53:21.143Z,857.00
2024-02-08T10:54:21.039Z,870.00
2024-02-08T10:55:21.804Z,880.00
2024-02-08T10:56:21.002Z,885.00
2024-02-08T10:57:21.081Z,888.00
2024-02-08T10:58:21.223Z,897.00
2024-02-08T10:59:21.143Z,902.00
2024-02-08T11:00:21.252Z,906.00
2024-02-08T11:01:21.346Z,915.00
2024-02-08T11:02:21.218Z,926.00
2024-02-08T11:03:21.331Z,941.00
2024-02-08T11:04:21.381Z,954.00
2024-02-08T11:05:21.456Z,958.00
2024-02-08T11:06:21.439Z,967.00
2024-02-08T11:07:21.444Z,978.00
2024-02-08T11:08:22.344Z,989.00
2024-02-08T11:09:21.451Z,995.00
2024-02-08T11:10:21.523Z,1007.00
2024-02-08T11:11:21.563Z,1034.00
2024-02-08T11:12:21.525Z,1045.00
2024-02-08T11:13:21.604Z,1060.00
2024-02-08T11:14:21.696Z,1066.00
2024-02-08T11:15:21.703Z,1061.00
2024-02-08T11:16:22.528Z,1067.00
2024-02-08T11:17:22.232Z,1071.00
2024-02-08T11:18:21.754Z,1076.00
2024-02-08T11:19:21.901Z,1081.00
2024-02-08T11:20:21.860Z,1091.00
2024-02-08T11:21:21.768Z,1103.00
2024-02-08T11:22:21.861Z,1118.00
2024-02-08T11:23:21.792Z,1120.00
2024-02-08T11:24:24.546Z,1122.00
2024-02-08T11:25:22.433Z,1113.00
2024-02-08T11:26:21.789Z,1096.00
2024-02-08T11:27:21.786Z,1091.00
2024-02-08T11:28:26.628Z,1097.00
2024-02-08T11:29:22.823Z,889.00
2024-02-08T11:30:21.867Z,817.00
2024-02-08T11:31:21.855Z,779.00
2024-02-08T11:32:21.866Z,776.00
2024-02-08T11:33:21.988Z,742.00
2024-02-08T11:34:22.119Z,702.00
2024-02-08T11:35:22.266Z,691.00
2024-02-08T11:36:22.070Z,684.00
2024-02-08T11:37:22.160Z,678.00
2024-02-08T11:38:22.205Z,674.00
2024-02-08T11:39:22.330Z,668.00
2024-02-08T11:40:22.316Z,658.00
2024-02-08T11:41:22.423Z,643.00
2024-02-08T11:42:22.389Z,622.00
2024-02-08T11:43:22.572Z,604.00
2024-02-08T11:44:22.396Z,593.00
2024-02-08T11:45:22.506Z,585.00
2024-02-08T11:46:22.491Z,580.00
2024-02-08T11:47:22.510Z,584.00
2024-02-08T11:48:22.498Z,587.00
2024-02-08T11:49:22.608Z,814.00
2024-02-08T11:50:22.658Z,804.00
2024-02-08T11:51:22.542Z,806.00
2024-02-08T11:52:22.576Z,806.00
2024-02-08T11:53:22.565Z,790.00
2024-02-08T11:54:22.525Z,780.00
2024-02-08T11:55:22.806Z,756.00
2024-02-08T11:56:22.580Z,732.00
2024-02-08T11:57:22.674Z,727.00
2024-02-08T11:58:22.698Z,711.00
2024-02-08T11:59:22.656Z,656.00
2024-02-08T12:00:22.707Z,649.00
2024-02-08T12:01:22.852Z,651.00
2024-02-08T12:02:22.676Z,655.00
2024-02-08T12:03:22.732Z,654.00
2024-02-08T12:04:22.896Z,660.00
2024-02-08T12:05:22.954Z,666.00
2024-02-08T12:06:23.222Z,672.00
2024-02-08T12:07:22.782Z,689.00
2024-02-08T12:08:26.335Z,701.00
2024-02-08T12:09:24.059Z,722.00
2024-02-08T12:10:22.880Z,726.00
2024-02-08T12:11:22.741Z,731.00
2024-02-08T12:12:22.776Z,737.00
2024-02-08T12:13:22.881Z,738.00
2024-02-08T12:14:27.065Z,740.00
2024-02-08T12:15:22.758Z,740.00
2024-02-08T12:16:22.797Z,742.00
2024-02-08T12:17:22.796Z,743.00
2024-02-08T12:18:22.904Z,741.00
2024-02-08T12:19:23.023Z,741.00
2024-02-08T12:20:22.825Z,742.00
2024-02-08T12:21:22.817Z,745.00
2024-02-08T12:22:22.866Z,746.00
2024-02-08T12:23:22.834Z,749.00
2024-02-08T12:24:22.784Z,751.00
2024-02-08T12:25:22.809Z,748.00
2024-02-08T12:26:22.824Z,747.00
2024-02-08T12:27:22.889Z,749.00
2024-02-08T12:28:22.972Z,751.00
2024-02-08T12:29:22.927Z,754.00
2024-02-08T12:30:22.978Z,751.00
2024-02-08T12:31:23.101Z,752.00
2024-02-08T12:32:23.103Z,752.00
2024-02-08T12:33:23.195Z,752.00
2024-02-08T12:34:23.250Z,753.00
2024-02-08T12:35:23.349Z,687.00
2024-02-08T12:36:23.215Z,680.00
2024-02-08T12:37:23.275Z,665.00
2024-02-08T12:38:23.205Z,649.00
2024-02-08T12:39:23.259Z,648.00
2024-02-08T12:40:23.485Z,645.00
2024-02-08T12:41:23.361Z,655.00
2024-02-08T12:42:23.431Z,694.00
2024-02-08T12:43:23.541Z,692.00
2024-02-08T12:44:23.448Z,688.00
2024-02-08T12:45:23.552Z,697.00
2024-02-08T12:46:23.640Z,706.00
2024-02-08T12:47:23.590Z,717.00
2024-02-08T12:48:23.754Z,715.00
2024-02-08T12:49:23.872Z,706.00
2024-02-08T12:50:27.070Z,717.00
2024-02-08T12:51:24.835Z,722.00
2024-02-08T12:52:23.854Z,731.00
2024-02-08T12:53:23.688Z,738.00
2024-02-08T12:54:23.724Z,745.00
2024-02-08T12:55:23.741Z,742.00
2024-02-08T12:56:23.820Z,747.00
2024-02-08T12:57:23.738Z,749.00
2024-02-08T12:58:23.747Z,750.00
2024-02-08T12:59:23.722Z,750.00
2024-02-08T13:00:23.884Z,753.00
2024-02-08T13:01:23.807Z,752.00
2024-02-08T13:02:23.725Z,758.00
2024-02-08T13:03:23.768Z,769.00
2024-02-08T13:04:23.942Z,789.00
2024-02-08T13:05:23.851Z,811.00
2024-02-08T13:06:23.738Z,925.00
2024-02-08T13:07:23.929Z,886.00
2024-02-08T13:08:23.857Z,885.00
2024-02-08T13:09:23.796Z,1040.00
2024-02-08T13:10:23.768Z,1004.00
2024-02-08T13:11:23.718Z,1000.00
2024-02-08T13:12:23.698Z,985.00
2024-02-08T13:13:23.794Z,966.00
2024-02-08T13:14:23.920Z,948.00
2024-02-08T13:15:23.999Z,933.00
2024-02-08T13:16:24.039Z,898.00
2024-02-08T13:17:23.905Z,887.00
2024-02-08T13:18:23.996Z,877.00
2024-02-08T13:19:23.957Z,870.00
2024-02-08T13:20:24.147Z,863.00
2024-02-08T13:21:24.004Z,857.00
2024-02-08T13:22:23.966Z,849.00
2024-02-08T13:23:23.987Z,843.00
2024-02-08T13:24:24.127Z,833.00
2024-02-08T13:25:24.122Z,825.00
2024-02-08T13:26:32.962Z,811.00
2024-02-08T13:27:25.098Z,803.00
2024-02-08T13:28:24.107Z,801.00
2024-02-08T13:29:24.023Z,792.00
2024-02-08T13:30:24.063Z,780.00
2024-02-08T13:31:24.089Z,771.00
2024-02-08T13:32:24.076Z,767.00
2024-02-08T13:33:24.183Z,759.00
2024-02-08T13:34:28.782Z,752.00
2024-02-08T13:35:25.387Z,751.00
2024-02-08T13:36:24.091Z,745.00
2024-02-08T13:37:24.188Z,737.00
2024-02-08T13:38:24.381Z,733.00
2024-02-08T13:39:24.053Z,726.00
2024-02-08T13:40:24.595Z,722.00
2024-02-08T13:41:24.266Z,716.00
2024-02-08T13:42:29.322Z,709.00
2024-02-08T13:43:25.101Z,706.00
2024-02-08T13:44:24.123Z,698.00
2024-02-08T13:45:24.071Z,690.00
2024-02-08T13:46:24.611Z,689.00
2024-02-08T13:47:25.125Z,687.00
2024-02-08T13:48:24.122Z,684.00
2024-02-08T13:49:24.142Z,681.00
2024-02-08T13:50:24.096Z,676.00
2024-02-08T13:51:24.041Z,676.00
2024-02-08T13:52:24.097Z,668.00
2024-02-08T13:53:24.093Z,665.00
2024-02-08T13:54:24.081Z,659.00
2024-02-08T13:55:25.774Z,655.00
2024-02-08T13:56:24.103Z,651.00
2024-02-08T13:57:24.736Z,648.00
2024-02-08T13:58:24.202Z,646.00
2024-02-08T13:59:24.168Z,644.00
2024-02-08T14:00:24.081Z,641.00
2024-02-08T14:01:24.120Z,637.00
2024-02-08T14:02:24.074Z,634.00
2024-02-08T14:03:24.751Z,628.00
2024-02-08T14:04:24.122Z,625.00
2024-02-08T14:05:24.155Z,621.00
2024-02-08T14:06:27.220Z,620.00
2024-02-08T14:07:24.113Z,617.00
2024-02-08T14:08:24.093Z,619.00
2024-02-08T14:09:24.088Z,616.00
2024-02-08T14:10:24.105Z,614.00
2024-02-08T14:11:24.101Z,613.00
2024-02-08T14:12:24.075Z,614.00
2024-02-08T14:13:24.184Z,611.00
2024-02-08T14:14:24.061Z,611.00
2024-02-08T14:15:24.164Z,610.00
2024-02-08T14:16:24.137Z,607.00
2024-02-08T14:17:24.074Z,604.00
2024-02-08T14:18:28.607Z,601.00
2024-02-08T14:19:25.138Z,599.00
2024-02-08T14:20:24.105Z,598.00
2024-02-08T14:21:24.156Z,597.00
2024-02-08T14:22:24.133Z,594.00
2024-02-08T14:23:24.109Z,592.00
2024-02-08T14:24:24.117Z,587.00
2024-02-08T14:25:24.152Z,584.00
2024-02-08T14:26:24.081Z,583.00
2024-02-08T14:27:24.116Z,585.00
2024-02-08T14:28:24.105Z,582.00
2024-02-08T14:29:24.181Z,577.00
2024-02-08T14:30:24.129Z,573.00
2024-02-08T14:31:24.208Z,572.00
2024-02-08T14:32:28.708Z,567.00
2024-02-08T14:33:24.204Z,562.00
2024-02-08T14:34:24.156Z,562.00
2024-02-08T14:35:24.154Z,563.00
2024-02-08T14:36:24.139Z,562.00
2024-02-08T14:37:24.249Z,561.00
2024-02-08T14:38:24.171Z,561.00
2024-02-08T14:39:24.148Z,560.00
2024-02-08T14:40:24.133Z,558.00
2024-02-08T14:41:24.119Z,561.00
2024-02-08T14:42:24.148Z,559.00
2024-02-08T14:43:24.684Z,557.00
2024-02-08T14:44:24.131Z,562.00
2024-02-08T14:45:24.154Z,558.00
2024-02-08T14:46:24.141Z,558.00
2024-02-08T14:47:24.331Z,556.00
2024-02-08T14:48:24.146Z,555.00
2024-02-08T14:49:26.419Z,555.00
2024-02-08T14:50:24.179Z,556.00
2024-02-08T14:51:24.165Z,559.00
2024-02-08T14:52:24.141Z,571.00
2024-02-08T14:53:24.124Z,575.00
2024-02-08T14:54:24.165Z,580.00
2024-02-08T14:55:24.268Z,586.00
2024-02-08T14:56:24.823Z,597.00
2024-02-08T14:57:24.167Z,601.00
2024-02-08T14:58:24.245Z,603.00
2024-02-08T14:59:24.151Z,608.00
2024-02-08T15:00:24.186Z,645.00
2024-02-08T15:01:24.214Z,648.00
2024-02-08T15:02:25.053Z,647.00
2024-02-08T15:03:24.231Z,650.00
2024-02-08T15:04:24.206Z,650.00
2024-02-08T15:05:24.288Z,652.00
2024-02-08T15:06:24.162Z,655.00
2024-02-08T15:07:24.165Z,655.00
2024-02-08T15:08:24.235Z,657.00
2024-02-08T15:09:24.145Z,657.00
2024-02-08T15:10:24.256Z,658.00
2024-02-08T15:11:24.210Z,656.00
2024-02-08T15:12:24.174Z,657.00
2024-02-08T15:13:24.223Z,653.00
2024-02-08T15:14:24.172Z,649.00
2024-02-08T15:15:24.179Z,650.00
2024-02-08T15:16:24.253Z,650.00
2024-02-08T15:17:24.205Z,651.00
2024-02-08T15:18:24.264Z,653.00
2024-02-08T15:19:24.265Z,659.00
2024-02-08T15:20:24.165Z,666.00
2024-02-08T15:21:24.249Z,669.00
2024-02-08T15:22:24.281Z,673.00
2024-02-08T15:23:24.179Z,674.00
2024-02-08T15:24:24.239Z,668.00
2024-02-08T15:25:24.240Z,675.00
2024-02-08T15:26:24.219Z,678.00
2024-02-08T15:27:24.192Z,677.00
2024-02-08T15:28:24.218Z,680.00
2024-02-08T15:29:24.214Z,680.00
2024-02-08T15:30:24.235Z,683.00
2024-02-08T15:31:24.266Z,689.00
2024-02-08T15:32:24.270Z,688.00
2024-02-08T15:33:24.241Z,688.00
2024-02-08T15:34:24.358Z,685.00
2024-02-08T15:35:24.341Z,687.00
2024-02-08T15:36:24.305Z,684.00
2024-02-08T15:37:24.312Z,683.00
2024-02-08T15:38:24.318Z,679.00
2024-02-08T15:39:24.344Z,682.00
2024-02-08T15:40:24.334Z,682.00
2024-02-08T15:41:24.497Z,681.00
2024-02-08T15:42:24.480Z,679.00
2024-02-08T15:43:24.492Z,681.00
2024-02-08T15:44:24.504Z,682.00
2024-02-08T15:45:24.538Z,682.00
2024-02-08T15:46:24.551Z,682.00
2024-02-08T15:47:24.615Z,680.00
2024-02-08T15:48:24.758Z,679.00
2024-02-08T15:49:24.765Z,678.00
2024-02-08T15:50:24.698Z,679.00
2024-02-08T15:51:24.718Z,680.00
2024-02-08T15:52:24.760Z,681.00
2024-02-08T15:53:24.768Z,679.00
2024-02-08T15:54:24.798Z,677.00
2024-02-08T15:55:24.924Z,678.00
2024-02-08T15:56:24.841Z,677.00
2024-02-08T15:57:24.822Z,676.00
2024-02-08T15:58:24.910Z,678.00
2024-02-08T15:59:24.846Z,680.00
2024-02-08T16:00:24.881Z,682.00
2024-02-08T16:01:24.994Z,682.00
2024-02-08T16:02:25.110Z,682.00
2024-02-08T16:03:25.351Z,680.00
2024-02-08T16:04:24.950Z,680.00
2024-02-08T16:05:25.932Z,679.00
2024-02-08T16:06:26.816Z,676.00
2024-02-08T16:07:24.992Z,674.00
2024-02-08T16:08:24.951Z,676.00
2024-02-08T16:09:25.185Z,676.00
2024-02-08T16:10:25.040Z,674.00
2024-02-08T16:11:24.968Z,670.00
2024-02-08T16:12:24.927Z,672.00
2024-02-08T16:13:24.931Z,671.00
2024-02-08T16:14:24.911Z,669.00
2024-02-08T16:15:25.131Z,670.00
2024-02-08T16:16:25.007Z,671.00
2024-02-08T16:17:25.032Z,672.00
2024-02-08T16:18:25.080Z,674.00
2024-02-08T16:19:25.153Z,675.00
2024-02-08T16:20:25.888Z,674.00
2024-02-08T16:21:24.948Z,672.00
2024-02-08T16:22:25.047Z,674.00
2024-02-08T16:23:24.975Z,671.00
2024-02-08T16:24:24.974Z,674.00
2024-02-08T16:25:25.056Z,673.00
2024-02-08T16:26:25.048Z,671.00
2024-02-08T16:27:24.986Z,672.00
2024-02-08T16:28:25.257Z,673.00
2024-02-08T16:29:25.094Z,675.00
2024-02-08T16:30:25.051Z,675.00
2024-02-08T16:31:25.041Z,675.00
2024-02-08T16:32:25.005Z,678.00
2024-02-08T16:33:25.072Z,677.00
2024-02-08T16:34:25.234Z,678.00
2024-02-08T16:35:25.091Z,678.00
2024-02-08T16:36:25.064Z,680.00
2024-02-08T16:37:25.054Z,683.00
2024-02-08T16:38:24.999Z,682.00
2024-02-08T16:39:25.051Z,681.00
2024-02-08T16:40:25.082Z,679.00
2024-02-08T16:41:25.018Z,676.00
2024-02-08T16:42:25.133Z,677.00
2024-02-08T16:43:25.051Z,671.00
2024-02-08T16:44:25.105Z,669.00
2024-02-08T16:45:24.987Z,668.00
2024-02-08T16:46:25.059Z,667.00
2024-02-08T16:47:25.060Z,673.00
2024-02-08T16:48:25.363Z,677.00
2024-02-08T16:49:25.063Z,679.00
2024-02-08T16:50:25.041Z,676.00
2024-02-08T16:51:25.055Z,676.00
2024-02-08T16:52:25.090Z,672.00
2024-02-08T16:53:25.092Z,671.00
2024-02-08T16:54:25.123Z,674.00
2024-02-08T16:55:25.136Z,673.00
2024-02-08T16:56:25.067Z,674.00
2024-02-08T16:57:25.057Z,674.00
2024-02-08T16:58:25.131Z,674.00
2024-02-08T16:59:25.116Z,673.00
2024-02-08T17:00:25.119Z,671.00
2024-02-08T17:01:25.195Z,669.00
2024-02-08T17:02:25.179Z,672.00
2024-02-08T17:03:25.133Z,671.00
2024-02-08T17:04:25.339Z,672.00
2024-02-08T17:05:25.454Z,672.00
2024-02-08T17:06:25.286Z,671.00
2024-02-08T17:07:25.496Z,669.00
2024-02-08T17:08:25.389Z,668.00
2024-02-08T17:09:25.743Z,671.00
2024-02-08T17:10:25.423Z,669.00
2024-02-08T17:11:25.470Z,669.00
2024-02-08T17:12:25.434Z,670.00
2024-02-08T17:13:25.551Z,670.00
2024-02-08T17:14:25.488Z,670.00
2024-02-08T17:15:25.613Z,671.00
2024-02-08T17:16:25.568Z,674.00
2024-02-08T17:17:25.573Z,673.00
2024-02-08T17:18:25.853Z,675.00
2024-02-08T17:19:25.695Z,677.00
2024-02-08T17:20:25.511Z,678.00
2024-02-08T17:21:25.584Z,677.00
2024-02-08T17:22:25.623Z,676.00
2024-02-08T17:23:25.615Z,671.00
2024-02-08T17:24:25.647Z,671.00
2024-02-08T17:25:26.449Z,669.00
2024-02-08T17:26:25.645Z,667.00
2024-02-08T17:27:25.662Z,670.00
2024-02-08T17:28:25.764Z,668.00
2024-02-08T17:29:25.718Z,669.00
2024-02-08T17:30:25.764Z,670.00
2024-02-08T17:31:25.800Z,670.00
2024-02-08T17:32:26.163Z,669.00
2024-02-08T17:33:25.863Z,669.00
2024-02-08T17:34:25.907Z,669.00
2024-02-08T17:35:26.643Z,667.00
2024-02-08T17:36:28.318Z,668.00
2024-02-08T17:37:25.991Z,668.00
2024-02-08T17:38:25.841Z,666.00
2024-02-08T17:39:26.411Z,665.00
2024-02-08T17:40:25.812Z,664.00
2024-02-08T17:41:25.833Z,663.00
2024-02-08T17:42:25.825Z,664.00
2024-02-08T17:43:25.979Z,666.00
2024-02-08T17:44:25.852Z,665.00
2024-02-08T17:45:25.910Z,666.00
2024-02-08T17:46:26.054Z,667.00
2024-02-08T17:47:25.896Z,669.00
2024-02-08T17:48:25.931Z,669.00
2024-02-08T17:49:25.980Z,667.00
2024-02-08T17:50:25.909Z,667.00
2024-02-08T17:51:25.855Z,672.00
2024-02-08T17:52:25.901Z,673.00
2024-02-08T17:53:25.861Z,673.00
2024-02-08T17:54:25.951Z,674.00
2024-02-08T17:55:25.874Z,674.00
2024-02-08T17:56:25.871Z,674.00
2024-02-08T17:57:26.189Z,675.00
2024-02-08T17:58:25.965Z,674.00
2024-02-08T17:59:25.873Z,671.00
2024-02-08T18:00:49.516Z,672.00
